EZY5AE EGKK-EHAM
Flight info
| Callsign | EZY5AE |
|---|---|
| Flight time | 0h 38m |
| Altitude | 29000 |
| Route | FRANE M604 GASBA M197 REDFA |
| Aircraft | A320/M-SDE3FGHIRWY/LB1 |
Departure
| Time | 2026-05-05 09:46 |
|---|---|
| Airport | London Gatwick Airport (EGKK) |
Arrival
| Time | 2026-05-05 10:24 |
|---|---|
| Airport | Amsterdam Airport Schiphol (EHAM) |
| Time | Latitude | Longitude | Altitude | Speed | Heading |
|---|---|---|---|---|---|
| 2026-05-05 09:14 | 51.15484 | -0.16967 | 209 ft | 0 kts | 348° |
| 2026-05-05 09:15 | 51.15497 | -0.16907 | 211 ft | 0 kts | 349° |
| 2026-05-05 09:35 | 51.15483 | -0.16902 | 230 ft | 4 kts | 343° |
| 2026-05-05 09:35 | 51.15460 | -0.16885 | 217 ft | 4 kts | 318° |
| 2026-05-05 09:36 | 51.15447 | -0.16853 | 216 ft | 3 kts | 263° |
| 2026-05-05 09:36 | 51.15448 | -0.16839 | 215 ft | 0 kts | 258° |
| 2026-05-05 09:39 | 51.15448 | -0.16840 | 205 ft | 1 kts | 258° |
| 2026-05-05 09:39 | 51.15435 | -0.16939 | 205 ft | 14 kts | 258° |
| 2026-05-05 09:40 | 51.15415 | -0.17081 | 209 ft | 13 kts | 257° |
| 2026-05-05 09:40 | 51.15388 | -0.17204 | 213 ft | 11 kts | 255° |
| 2026-05-05 09:40 | 51.15365 | -0.17315 | 207 ft | 10 kts | 254° |
| 2026-05-05 09:40 | 51.15321 | -0.17378 | 205 ft | 8 kts | 207° |
| 2026-05-05 09:41 | 51.15298 | -0.17468 | 209 ft | 15 kts | 259° |
| 2026-05-05 09:41 | 51.15268 | -0.17695 | 210 ft | 23 kts | 258° |
| 2026-05-05 09:41 | 51.15233 | -0.17951 | 212 ft | 25 kts | 257° |
| 2026-05-05 09:41 | 51.15195 | -0.18228 | 207 ft | 27 kts | 258° |
| 2026-05-05 09:42 | 51.15159 | -0.18527 | 211 ft | 28 kts | 258° |
| 2026-05-05 09:42 | 51.15117 | -0.18845 | 211 ft | 30 kts | 258° |
| 2026-05-05 09:42 | 51.15073 | -0.19178 | 205 ft | 31 kts | 256° |
| 2026-05-05 09:42 | 51.15024 | -0.19525 | 211 ft | 33 kts | 257° |
| 2026-05-05 09:43 | 51.14973 | -0.19887 | 209 ft | 34 kts | 256° |
| 2026-05-05 09:43 | 51.14921 | -0.20269 | 205 ft | 35 kts | 257° |
| 2026-05-05 09:43 | 51.14867 | -0.20651 | 207 ft | 36 kts | 258° |
| 2026-05-05 09:43 | 51.14813 | -0.21047 | 208 ft | 37 kts | 257° |
| 2026-05-05 09:44 | 51.14776 | -0.21247 | 207 ft | 15 kts | 256° |
| 2026-05-05 09:44 | 51.14750 | -0.21386 | 212 ft | 12 kts | 234° |
| 2026-05-05 09:44 | 51.14680 | -0.21390 | 205 ft | 10 kts | 149° |
| 2026-05-05 09:44 | 51.14627 | -0.21335 | 207 ft | 9 kts | 166° |
| 2026-05-05 09:45 | 51.14572 | -0.21310 | 208 ft | 8 kts | 158° |
| 2026-05-05 09:45 | 51.14520 | -0.21196 | 210 ft | 15 kts | 92° |
| 2026-05-05 09:45 | 51.14541 | -0.21019 | 213 ft | 22 kts | 78° |
| 2026-05-05 09:45 | 51.14629 | -0.20388 | 212 ft | 95 kts | 78° |
| 2026-05-05 09:46 | 51.14818 | -0.19035 | 220 ft | 152 kts | 78° |
| 2026-05-05 09:46 | 51.15050 | -0.17398 | 887 ft | 149 kts | 74° |
| 2026-05-05 09:46 | 51.15272 | -0.15790 | 1627 ft | 153 kts | 74° |
| 2026-05-05 09:46 | 51.15526 | -0.13999 | 1971 ft | 179 kts | 74° |
| 2026-05-05 09:47 | 51.15817 | -0.11926 | 2387 ft | 204 kts | 74° |
| 2026-05-05 09:47 | 51.16140 | -0.09592 | 2893 ft | 228 kts | 75° |
| 2026-05-05 09:47 | 51.16491 | -0.07014 | 3543 ft | 246 kts | 75° |
| 2026-05-05 09:47 | 51.16846 | -0.04305 | 4434 ft | 253 kts | 79° |
| 2026-05-05 09:48 | 51.16912 | -0.01444 | 4977 ft | 263 kts | 86° |
| 2026-05-05 09:48 | 51.17327 | 0.01374 | 6017 ft | 264 kts | 63° |
| 2026-05-05 09:48 | 51.18457 | 0.03639 | 6888 ft | 270 kts | 38° |
| 2026-05-05 09:48 | 51.19974 | 0.05426 | 7807 ft | 273 kts | 35° |
| 2026-05-05 09:49 | 51.21521 | 0.07216 | 8711 ft | 277 kts | 36° |
| 2026-05-05 09:49 | 51.23095 | 0.09039 | 9597 ft | 282 kts | 36° |
| 2026-05-05 09:49 | 51.24700 | 0.10903 | 10368 ft | 291 kts | 36° |
| 2026-05-05 09:49 | 51.26403 | 0.12892 | 10686 ft | 315 kts | 36° |
| 2026-05-05 09:50 | 51.28227 | 0.15033 | 11100 ft | 333 kts | 36° |
| 2026-05-05 09:50 | 51.30112 | 0.17249 | 11827 ft | 339 kts | 36° |
| 2026-05-05 09:50 | 51.31995 | 0.19465 | 12595 ft | 343 kts | 36° |
| 2026-05-05 09:50 | 51.33925 | 0.21739 | 13350 ft | 346 kts | 37° |
| 2026-05-05 09:51 | 51.35898 | 0.24065 | 14116 ft | 350 kts | 37° |
| 2026-05-05 09:51 | 51.37868 | 0.26389 | 14785 ft | 354 kts | 37° |
| 2026-05-05 09:51 | 51.39861 | 0.28743 | 15436 ft | 359 kts | 37° |
| 2026-05-05 09:51 | 51.41885 | 0.31136 | 16064 ft | 364 kts | 37° |
| 2026-05-05 09:52 | 51.43938 | 0.33567 | 16692 ft | 369 kts | 38° |
| 2026-05-05 09:52 | 51.46015 | 0.36035 | 17316 ft | 374 kts | 38° |
| 2026-05-05 09:52 | 51.48120 | 0.38537 | 17915 ft | 380 kts | 37° |
| 2026-05-05 09:52 | 51.50255 | 0.41080 | 18504 ft | 384 kts | 37° |
| 2026-05-05 09:53 | 51.51682 | 0.42783 | 18860 ft | 387 kts | 38° |
| 2026-05-05 09:53 | 51.54601 | 0.46269 | 19600 ft | 393 kts | 37° |
| 2026-05-05 09:53 | 51.56802 | 0.48899 | 20152 ft | 398 kts | 38° |
| 2026-05-05 09:53 | 51.59037 | 0.51565 | 20731 ft | 401 kts | 37° |
| 2026-05-05 09:54 | 51.61308 | 0.54278 | 21317 ft | 405 kts | 38° |
| 2026-05-05 09:54 | 51.63555 | 0.56967 | 21871 ft | 408 kts | 37° |
| 2026-05-05 09:54 | 51.65842 | 0.59712 | 22438 ft | 412 kts | 38° |
| 2026-05-05 09:54 | 51.68150 | 0.62483 | 22979 ft | 415 kts | 38° |
| 2026-05-05 09:55 | 51.70472 | 0.65275 | 23512 ft | 419 kts | 38° |
| 2026-05-05 09:55 | 51.72815 | 0.68099 | 23948 ft | 422 kts | 38° |
| 2026-05-05 09:55 | 51.74408 | 0.70026 | 24235 ft | 424 kts | 38° |
| 2026-05-05 09:55 | 51.76776 | 0.72898 | 24649 ft | 428 kts | 38° |
| 2026-05-05 09:56 | 51.79144 | 0.75835 | 25047 ft | 430 kts | 41° |
| 2026-05-05 09:56 | 51.81279 | 0.79231 | 25421 ft | 433 kts | 50° |
| 2026-05-05 09:56 | 51.83099 | 0.83141 | 25715 ft | 437 kts | 59° |
| 2026-05-05 09:56 | 51.84543 | 0.87477 | 26060 ft | 440 kts | 68° |
| 2026-05-05 09:57 | 51.85573 | 0.92130 | 26430 ft | 441 kts | 76° |
| 2026-05-05 09:57 | 51.86443 | 0.96910 | 26798 ft | 444 kts | 76° |
| 2026-05-05 09:57 | 51.87318 | 1.01721 | 27142 ft | 448 kts | 75° |
| 2026-05-05 09:57 | 51.88198 | 1.06573 | 27487 ft | 451 kts | 75° |
| 2026-05-05 09:58 | 51.89080 | 1.11459 | 27838 ft | 454 kts | 75° |
| 2026-05-05 09:58 | 51.89966 | 1.16391 | 28178 ft | 457 kts | 76° |
| 2026-05-05 09:58 | 51.90853 | 1.21353 | 28518 ft | 460 kts | 76° |
| 2026-05-05 09:58 | 51.91742 | 1.26346 | 28844 ft | 463 kts | 76° |
| 2026-05-05 09:59 | 51.92636 | 1.31369 | 29164 ft | 466 kts | 76° |
| 2026-05-05 09:59 | 51.93537 | 1.36425 | 29475 ft | 468 kts | 76° |
| 2026-05-05 09:59 | 51.94444 | 1.41512 | 29773 ft | 471 kts | 76° |
| 2026-05-05 09:59 | 51.95354 | 1.46625 | 30053 ft | 474 kts | 75° |
| 2026-05-05 10:00 | 51.96266 | 1.51765 | 30306 ft | 476 kts | 75° |
| 2026-05-05 10:00 | 51.97165 | 1.56858 | 30562 ft | 477 kts | 75° |
| 2026-05-05 10:00 | 51.98074 | 1.62039 | 30819 ft | 478 kts | 75° |
| 2026-05-05 10:00 | 51.98980 | 1.67212 | 31072 ft | 473 kts | 75° |
| 2026-05-05 10:01 | 51.99848 | 1.72290 | 30983 ft | 462 kts | 76° |
| 2026-05-05 10:01 | 52.00656 | 1.77312 | 30926 ft | 459 kts | 77° |
| 2026-05-05 10:01 | 52.02177 | 1.87344 | 30684 ft | 457 kts | 77° |
| 2026-05-05 10:02 | 52.02930 | 1.92380 | 29666 ft | 462 kts | 77° |
| 2026-05-05 10:02 | 52.03687 | 1.97416 | 29078 ft | 456 kts | 77° |
| 2026-05-05 10:02 | 52.04442 | 2.02384 | 28475 ft | 451 kts | 77° |
| 2026-05-05 10:02 | 52.05193 | 2.07294 | 27877 ft | 446 kts | 77° |
| 2026-05-05 10:03 | 52.05938 | 2.12157 | 27291 ft | 442 kts | 77° |
| 2026-05-05 10:03 | 52.06677 | 2.16980 | 26690 ft | 437 kts | 77° |
| 2026-05-05 10:03 | 52.07408 | 2.21753 | 26115 ft | 433 kts | 77° |
| 2026-05-05 10:03 | 52.08130 | 2.26488 | 25546 ft | 430 kts | 77° |
| 2026-05-05 10:04 | 52.08838 | 2.31175 | 24991 ft | 426 kts | 78° |
| 2026-05-05 10:04 | 52.09537 | 2.35837 | 24449 ft | 422 kts | 78° |
| 2026-05-05 10:04 | 52.10226 | 2.40456 | 23914 ft | 419 kts | 78° |
| 2026-05-05 10:04 | 52.10911 | 2.45039 | 23384 ft | 415 kts | 77° |
| 2026-05-05 10:05 | 52.11846 | 2.49458 | 22848 ft | 412 kts | 67° |
| 2026-05-05 10:05 | 52.13195 | 2.53543 | 22511 ft | 410 kts | 60° |
| 2026-05-05 10:05 | 52.14647 | 2.57525 | 22125 ft | 407 kts | 60° |
| 2026-05-05 10:05 | 52.16080 | 2.61477 | 21753 ft | 405 kts | 60° |
| 2026-05-05 10:06 | 52.17509 | 2.65426 | 21379 ft | 402 kts | 60° |
| 2026-05-05 10:06 | 52.18923 | 2.69345 | 21009 ft | 401 kts | 60° |
| 2026-05-05 10:06 | 52.20324 | 2.73237 | 20631 ft | 397 kts | 60° |
| 2026-05-05 10:06 | 52.21718 | 2.77117 | 20268 ft | 396 kts | 60° |
| 2026-05-05 10:07 | 52.23104 | 2.80973 | 19901 ft | 392 kts | 60° |
| 2026-05-05 10:07 | 52.24479 | 2.84802 | 19537 ft | 391 kts | 60° |
| 2026-05-05 10:07 | 52.25849 | 2.88624 | 19185 ft | 389 kts | 60° |
| 2026-05-05 10:07 | 52.27208 | 2.92419 | 18822 ft | 387 kts | 59° |
| 2026-05-05 10:08 | 52.28564 | 2.96206 | 18470 ft | 385 kts | 59° |
| 2026-05-05 10:08 | 52.29908 | 2.99967 | 18083 ft | 383 kts | 59° |
| 2026-05-05 10:08 | 52.31248 | 3.03723 | 17722 ft | 381 kts | 59° |
| 2026-05-05 10:08 | 52.32575 | 3.07454 | 17372 ft | 378 kts | 59° |
| 2026-05-05 10:09 | 52.33893 | 3.11171 | 17023 ft | 378 kts | 60° |
| 2026-05-05 10:09 | 52.35201 | 3.14868 | 16673 ft | 374 kts | 59° |
| 2026-05-05 10:09 | 52.36501 | 3.18545 | 16339 ft | 373 kts | 59° |
| 2026-05-05 10:09 | 52.37797 | 3.22208 | 15986 ft | 370 kts | 59° |
| 2026-05-05 10:10 | 52.39079 | 3.25835 | 15642 ft | 367 kts | 59° |
| 2026-05-05 10:10 | 52.40326 | 3.29479 | 15325 ft | 366 kts | 65° |
| 2026-05-05 10:10 | 52.41045 | 3.33444 | 15078 ft | 364 kts | 83° |
| 2026-05-05 10:10 | 52.40972 | 3.37564 | 14834 ft | 364 kts | 102° |
| 2026-05-05 10:11 | 52.40334 | 3.41567 | 14590 ft | 363 kts | 106° |
| 2026-05-05 10:11 | 52.39658 | 3.45529 | 14351 ft | 360 kts | 106° |
| 2026-05-05 10:11 | 52.38979 | 3.49468 | 14110 ft | 359 kts | 106° |
| 2026-05-05 10:11 | 52.38297 | 3.53395 | 13878 ft | 359 kts | 106° |
| 2026-05-05 10:12 | 52.37620 | 3.57307 | 13611 ft | 356 kts | 106° |
| 2026-05-05 10:12 | 52.36953 | 3.61171 | 13232 ft | 351 kts | 106° |
| 2026-05-05 10:12 | 52.36296 | 3.64996 | 12754 ft | 348 kts | 106° |
| 2026-05-05 10:12 | 52.35641 | 3.68801 | 12262 ft | 346 kts | 106° |
| 2026-05-05 10:13 | 52.34987 | 3.72575 | 11766 ft | 344 kts | 106° |
| 2026-05-05 10:13 | 52.34335 | 3.76330 | 11271 ft | 342 kts | 105° |
| 2026-05-05 10:13 | 52.33779 | 3.79533 | 10832 ft | 341 kts | 105° |
| 2026-05-05 10:13 | 52.33212 | 3.82793 | 10444 ft | 338 kts | 105° |
| 2026-05-05 10:14 | 52.32644 | 3.86046 | 10325 ft | 326 kts | 105° |
| 2026-05-05 10:14 | 52.32036 | 3.89531 | 10202 ft | 313 kts | 105° |
| 2026-05-05 10:14 | 52.31449 | 3.92896 | 10030 ft | 303 kts | 105° |
| 2026-05-05 10:14 | 52.30877 | 3.96172 | 9922 ft | 299 kts | 105° |
| 2026-05-05 10:15 | 52.30301 | 3.99458 | 9516 ft | 301 kts | 105° |
| 2026-05-05 10:15 | 52.29727 | 4.02714 | 9187 ft | 296 kts | 105° |
| 2026-05-05 10:15 | 52.29161 | 4.05932 | 8759 ft | 295 kts | 106° |
| 2026-05-05 10:15 | 52.28596 | 4.09132 | 8325 ft | 291 kts | 106° |
| 2026-05-05 10:16 | 52.28038 | 4.12284 | 7642 ft | 287 kts | 106° |
| 2026-05-05 10:16 | 52.27491 | 4.15383 | 7109 ft | 281 kts | 106° |
| 2026-05-05 10:16 | 52.26953 | 4.18424 | 6652 ft | 277 kts | 106° |
| 2026-05-05 10:16 | 52.26417 | 4.21436 | 6198 ft | 275 kts | 106° |
| 2026-05-05 10:17 | 52.25884 | 4.24419 | 5747 ft | 273 kts | 105° |
| 2026-05-05 10:17 | 52.25348 | 4.27401 | 5308 ft | 273 kts | 104° |
| 2026-05-05 10:17 | 52.24823 | 4.30321 | 5137 ft | 261 kts | 104° |
| 2026-05-05 10:17 | 52.24322 | 4.33094 | 5007 ft | 249 kts | 104° |
| 2026-05-05 10:18 | 52.23847 | 4.35739 | 4889 ft | 236 kts | 104° |
| 2026-05-05 10:18 | 52.23236 | 4.38159 | 4723 ft | 228 kts | 112° |
| 2026-05-05 10:18 | 52.22570 | 4.40478 | 4469 ft | 224 kts | 110° |
| 2026-05-05 10:18 | 52.21913 | 4.42758 | 4195 ft | 221 kts | 112° |
| 2026-05-05 10:19 | 52.21261 | 4.45030 | 3903 ft | 218 kts | 108° |
| 2026-05-05 10:19 | 52.20891 | 4.47390 | 3612 ft | 212 kts | 90° |
| 2026-05-05 10:19 | 52.20847 | 4.49774 | 3329 ft | 209 kts | 88° |
| 2026-05-05 10:19 | 52.20893 | 4.52126 | 3041 ft | 205 kts | 75° |
| 2026-05-05 10:20 | 52.21390 | 4.54257 | 2800 ft | 194 kts | 57° |
| 2026-05-05 10:20 | 52.22075 | 4.56027 | 2575 ft | 179 kts | 56° |
| 2026-05-05 10:20 | 52.22713 | 4.57671 | 2327 ft | 165 kts | 57° |
| 2026-05-05 10:20 | 52.23295 | 4.59173 | 2112 ft | 148 kts | 57° |
| 2026-05-05 10:21 | 52.23815 | 4.60518 | 1922 ft | 134 kts | 57° |
| 2026-05-05 10:21 | 52.24301 | 4.61774 | 1742 ft | 128 kts | 56° |
| 2026-05-05 10:21 | 52.24776 | 4.63002 | 1565 ft | 127 kts | 56° |
| 2026-05-05 10:21 | 52.25247 | 4.64221 | 1383 ft | 126 kts | 56° |
| 2026-05-05 10:22 | 52.25719 | 4.65443 | 1202 ft | 126 kts | 56° |
| 2026-05-05 10:22 | 52.26192 | 4.66665 | 1011 ft | 129 kts | 57° |
| 2026-05-05 10:22 | 52.26660 | 4.67878 | 820 ft | 126 kts | 56° |
| 2026-05-05 10:22 | 52.27126 | 4.69090 | 707 ft | 126 kts | 55° |
| 2026-05-05 10:23 | 52.27599 | 4.70317 | 499 ft | 126 kts | 56° |
| 2026-05-05 10:23 | 52.28068 | 4.71544 | 338 ft | 127 kts | 54° |
| 2026-05-05 10:23 | 52.28545 | 4.72790 | 151 ft | 127 kts | 56° |
| 2026-05-05 10:23 | 52.29010 | 4.73995 | 11 ft | 125 kts | 56° |
| 2026-05-05 10:24 | 52.29405 | 4.75016 | -2 ft | 80 kts | 58° |
| 2026-05-05 10:24 | 52.29612 | 4.75552 | -1 ft | 32 kts | 58° |
| 2026-05-05 10:24 | 52.29759 | 4.75785 | -2 ft | 28 kts | 30° |
| 2026-05-05 10:24 | 52.29925 | 4.75926 | -1 ft | 26 kts | 27° |
| 2026-05-05 10:25 | 52.29970 | 4.75964 | -1 ft | 6 kts | 28° |
| 2026-05-05 10:25 | 52.30022 | 4.76070 | -1 ft | 21 kts | 57° |
| 2026-05-05 10:25 | 52.30107 | 4.76288 | -1 ft | 23 kts | 58° |
| 2026-05-05 10:25 | 52.30197 | 4.76519 | -1 ft | 24 kts | 57° |
| 2026-05-05 10:26 | 52.30267 | 4.76702 | -1 ft | 11 kts | 58° |
| 2026-05-05 10:26 | 52.30337 | 4.76708 | -1 ft | 13 kts | 309° |
| 2026-05-05 10:26 | 52.30328 | 4.76575 | -1 ft | 11 kts | 274° |
| 2026-05-05 10:26 | 52.30382 | 4.76492 | -1 ft | 11 kts | 327° |
| 2026-05-05 10:27 | 52.30421 | 4.76451 | -1 ft | 0 kts | 327° |
| 2026-05-05 10:27 | 52.30426 | 4.76445 | -1 ft | 4 kts | 324° |
| 2026-05-05 10:27 | 52.30429 | 4.76417 | -1 ft | 2 kts | 261° |
| 2026-05-05 10:28 | 52.30423 | 4.76395 | -1 ft | 3 kts | 242° |
| 2026-05-05 10:28 | 52.30414 | 4.76372 | -1 ft | 2 kts | 239° |
| 2026-05-05 10:28 | 52.30410 | 4.76360 | -1 ft | 0 kts | 238° |
| 2026-05-05 10:28 | 52.30409 | 4.76357 | -1 ft | 1 kts | 238° |
| 2026-05-05 10:29 | 52.30408 | 4.76355 | -1 ft | 0 kts | 238° |